Terminal Aerodrome Forecast
Issued by NWS

Home | Current Version | Previous Version | Text Only | Print | Product List | Glossary On
Versions: 1 2 3 4 5 6 7 8 9 10 11 12 13 14 15
335
FTUS43 KMPX 221120
TAFRNH
TAF
KRNH 221120Z 2212/2312 30007KT P6SM SCT015 SCT250
     FM221600 31013G22KT P6SM SCT040 SCT250
     FM230100 29006KT P6SM SKC=

USA.gov is the U.S. government's official web portal to all federal, state and local government web resources and services.